createdAt,value
2022-08-05T00:04:55.561Z,36.53
2022-08-05T00:09:56.422Z,36.67
2022-08-05T00:14:55.312Z,36.83
2022-08-05T00:20:02.472Z,36.73
2022-08-05T00:25:03.409Z,37.14
2022-08-05T00:30:11.495Z,37.57
2022-08-05T00:35:10.951Z,37.58
2022-08-05T00:40:12.617Z,37.25
2022-08-05T00:45:13.562Z,37.30
2022-08-05T00:50:12.425Z,37.24
2022-08-05T00:55:13.863Z,37.03
2022-08-05T01:00:16.936Z,37.10
2022-08-05T01:05:15.962Z,37.29
2022-08-05T01:10:19.702Z,37.02
2022-08-05T01:15:36.166Z,37.09
2022-08-05T01:20:42.512Z,36.57
2022-08-05T01:26:02.294Z,36.87
2022-08-05T01:31:05.943Z,37.28
2022-08-05T01:36:13.135Z,37.69
2022-08-05T01:41:18.180Z,38.27
2022-08-05T01:46:42.119Z,37.73
2022-08-05T01:51:43.895Z,37.38
2022-08-05T01:58:12.973Z,37.78
2022-08-05T02:02:15.998Z,37.74
2022-08-05T02:07:21.856Z,37.73
2022-08-05T02:12:29.015Z,38.54
2022-08-05T02:18:32.173Z,38.75
2022-08-05T02:23:02.534Z,39.10
2022-08-05T02:28:08.797Z,39.47
2022-08-05T02:33:11.491Z,39.59
2022-08-05T02:38:19.333Z,40.01
2022-08-05T02:43:20.937Z,39.72
2022-08-05T02:48:29.569Z,40.05
2022-08-05T02:53:38.961Z,40.38
2022-08-05T02:58:43.745Z,40.64
2022-08-05T03:04:08.847Z,40.57
2022-08-05T03:09:04.275Z,40.25
2022-08-05T03:14:04.245Z,39.84
2022-08-05T03:19:17.080Z,39.79
2022-08-05T03:24:29.657Z,39.88
2022-08-05T03:29:45.808Z,40.39
2022-08-05T03:34:54.146Z,40.35
2022-08-05T03:40:01.691Z,40.71
2022-08-05T03:45:22.144Z,40.52
2022-08-05T03:50:23.598Z,40.84
2022-08-05T03:56:04.209Z,41.24
2022-08-05T04:00:54.470Z,41.20
2022-08-05T04:05:55.673Z,41.75
2022-08-05T04:10:57.649Z,42.10
2022-08-05T04:16:04.412Z,43.42
2022-08-05T04:21:07.013Z,43.48
2022-08-05T04:26:10.355Z,43.72
2022-08-05T04:31:15.247Z,42.81
2022-08-05T04:36:49.431Z,42.60
2022-08-05T04:41:37.621Z,42.58
2022-08-05T04:46:37.778Z,42.05
2022-08-05T04:51:38.587Z,42.27
2022-08-05T04:56:37.909Z,42.23
2022-08-05T05:02:08.118Z,42.91
2022-08-05T05:06:57.642Z,43.03
2022-08-05T05:12:01.708Z,42.66
2022-08-05T05:17:03.318Z,42.63
2022-08-05T05:22:22.645Z,42.59
2022-08-05T05:27:23.392Z,43.04
2022-08-05T05:32:22.534Z,43.14
2022-08-05T05:37:23.167Z,42.89
2022-08-05T05:42:36.167Z,42.34
2022-08-05T05:48:06.292Z,42.98
2022-08-05T05:52:56.492Z,43.29
2022-08-05T05:57:56.278Z,42.69
2022-08-05T06:03:02.434Z,42.89
2022-08-05T06:08:03.969Z,43.31
2022-08-05T06:13:02.878Z,43.25
2022-08-05T06:18:01.934Z,43.31
2022-08-05T06:23:02.106Z,43.25
2022-08-05T06:28:12.583Z,43.21
2022-08-05T06:33:20.555Z,43.08
2022-08-05T06:38:47.025Z,42.95
2022-08-05T06:43:59.303Z,42.76
2022-08-05T06:49:01.149Z,42.59
2022-08-05T06:54:03.484Z,42.82
2022-08-05T06:59:02.377Z,43.07
2022-08-05T07:04:03.008Z,42.71
2022-08-05T07:09:04.204Z,41.51
2022-08-05T07:14:29.345Z,41.77
2022-08-05T07:24:57.955Z,40.15
2022-08-05T07:30:27.399Z,40.89
2022-08-05T07:36:02.249Z,41.08
2022-08-05T07:40:44.601Z,41.26
2022-08-05T07:45:58.118Z,40.38
2022-08-05T07:50:57.592Z,40.21
2022-08-05T07:57:01.412Z,39.61
2022-08-05T08:01:52.147Z,39.43
2022-08-05T08:06:59.196Z,38.54
2022-08-05T08:12:05.607Z,38.42
2022-08-05T08:17:11.557Z,38.20
2022-08-05T08:22:15.859Z,37.23
2022-08-05T08:27:17.114Z,36.97
2022-08-05T08:32:18.656Z,35.68
2022-08-05T08:37:27.968Z,35.80
2022-08-05T08:42:34.585Z,34.79
2022-08-05T08:48:11.865Z,32.95
2022-08-05T08:53:18.131Z,30.86
2022-08-05T08:58:25.996Z,30.10
2022-08-05T09:03:25.950Z,28.52
2022-08-05T09:08:40.250Z,27.03
2022-08-05T09:14:00.864Z,25.97
2022-08-05T09:19:00.315Z,25.08
2022-08-05T09:24:08.802Z,23.49
2022-08-05T09:29:10.682Z,23.32
2022-08-05T09:34:19.450Z,21.86
2022-08-05T09:39:23.233Z,22.09
2022-08-05T09:44:37.113Z,20.44
2022-08-05T09:49:54.661Z,20.27
2022-08-05T09:55:55.239Z,19.69
2022-08-05T10:00:26.030Z,20.12
2022-08-05T10:05:27.538Z,19.09
2022-08-05T10:11:44.890Z,17.55
2022-08-05T10:17:03.560Z,17.50
2022-08-05T10:22:29.774Z,17.56
2022-08-05T10:28:13.411Z,16.64
2022-08-05T10:33:14.658Z,15.83
2022-08-05T10:38:15.874Z,16.18
2022-08-05T10:43:37.290Z,16.08
2022-08-05T10:49:01.485Z,16.12
2022-08-05T10:54:29.860Z,15.92
2022-08-05T11:00:04.323Z,15.17
2022-08-05T11:04:57.124Z,15.06
2022-08-05T11:10:03.951Z,15.23
2022-08-05T11:15:19.857Z,14.73
2022-08-05T11:20:58.022Z,13.76
2022-08-05T11:26:09.004Z,14.23
2022-08-05T11:31:56.969Z,14.24
2022-08-05T11:38:28.421Z,14.23
2022-08-05T11:44:04.762Z,14.21
2022-08-05T11:48:57.023Z,13.68
2022-08-05T11:54:40.728Z,12.48
2022-08-05T12:00:38.985Z,12.97
2022-08-05T12:05:45.293Z,12.75
2022-08-05T12:10:47.205Z,13.05
2022-08-05T12:16:58.152Z,14.82
2022-08-05T12:27:54.831Z,14.74
2022-08-05T12:32:56.321Z,13.38
2022-08-05T12:37:56.086Z,13.00
2022-08-05T12:42:57.089Z,12.99
2022-08-05T12:48:01.277Z,12.73
2022-08-05T12:53:17.927Z,13.02
2022-08-05T12:58:52.570Z,12.30
2022-08-05T13:03:48.674Z,12.23
2022-08-05T13:08:52.443Z,13.45
2022-08-05T13:14:06.008Z,13.87
2022-08-05T13:19:05.686Z,14.24
2022-08-05T13:24:05.636Z,14.68
2022-08-05T13:29:06.511Z,15.42
2022-08-05T13:34:21.944Z,15.15
2022-08-05T13:40:16.647Z,15.89
2022-08-05T13:44:46.403Z,16.74
2022-08-05T13:49:46.567Z,16.30
2022-08-05T13:54:53.500Z,16.84
2022-08-05T13:59:55.512Z,17.01
2022-08-05T14:05:15.417Z,16.37
2022-08-05T14:10:31.093Z,16.06
2022-08-05T14:16:05.260Z,15.57
2022-08-05T14:20:54.300Z,14.34
2022-08-05T14:25:54.556Z,14.74
2022-08-05T14:30:58.405Z,14.25
2022-08-05T14:35:57.208Z,12.60
2022-08-05T14:40:57.314Z,12.29
2022-08-05T14:45:56.053Z,12.04
2022-08-05T14:50:56.537Z,12.52
2022-08-05T14:55:55.293Z,12.24
2022-08-05T15:00:59.226Z,11.66
2022-08-05T15:06:07.739Z,11.80
2022-08-05T15:11:14.059Z,11.55
2022-08-05T15:16:26.221Z,11.67
2022-08-05T15:21:26.709Z,12.02
2022-08-05T15:26:32.113Z,11.31
2022-08-05T15:31:34.738Z,11.57
2022-08-05T15:36:35.392Z,11.97
2022-08-05T15:41:56.230Z,12.34
2022-08-05T15:46:53.030Z,13.06
2022-08-05T15:52:03.924Z,13.24
2022-08-05T15:57:13.092Z,13.86
2022-08-05T16:02:14.452Z,14.58
2022-08-05T16:07:21.408Z,15.07
2022-08-05T16:12:21.834Z,15.67
2022-08-05T16:17:20.681Z,16.20
2022-08-05T16:22:27.391Z,16.91
2022-08-05T16:27:32.356Z,16.98
2022-08-05T16:32:46.079Z,17.29
2022-08-05T16:38:03.420Z,17.50
2022-08-05T16:43:05.785Z,17.82
2022-08-05T16:48:06.256Z,18.42
2022-08-05T16:53:12.250Z,18.36
2022-08-05T16:58:21.573Z,18.77
2022-08-05T17:03:24.278Z,19.50
2022-08-05T17:08:36.423Z,20.17
2022-08-05T17:13:43.223Z,20.04
2022-08-05T17:18:42.610Z,20.34
2022-08-05T17:24:03.079Z,20.40
2022-08-05T17:29:09.890Z,21.08
2022-08-05T17:34:09.201Z,21.73
2022-08-05T17:39:24.528Z,21.77
2022-08-05T17:44:32.453Z,22.38
2022-08-05T17:50:00.002Z,22.56
2022-08-05T17:54:51.825Z,23.25
2022-08-05T18:00:03.092Z,23.62
2022-08-05T18:05:06.990Z,24.00
2022-08-05T18:10:10.306Z,24.41
2022-08-05T18:15:10.907Z,24.70
2022-08-05T18:20:14.897Z,25.20
2022-08-05T18:25:16.943Z,25.81
2022-08-05T18:30:15.998Z,25.94
2022-08-05T18:35:16.344Z,26.61
2022-08-05T18:40:34.030Z,26.44
2022-08-05T18:45:41.732Z,27.53
2022-08-05T18:51:01.636Z,27.39
2022-08-05T18:56:21.719Z,28.02
2022-08-05T19:01:33.371Z,28.67
2022-08-05T19:06:45.164Z,28.94
2022-08-05T19:12:00.986Z,28.88
2022-08-05T19:17:00.306Z,29.82
2022-08-05T19:21:59.134Z,29.53
2022-08-05T19:26:59.363Z,29.53
2022-08-05T19:32:03.147Z,29.76
2022-08-05T19:37:03.109Z,29.79
2022-08-05T19:42:07.143Z,29.89
2022-08-05T19:47:07.925Z,30.34
2022-08-05T19:52:31.542Z,30.46
2022-08-05T19:57:47.486Z,30.72
2022-08-05T20:02:47.814Z,30.89
2022-08-05T20:07:49.057Z,30.80
2022-08-05T20:12:49.602Z,31.33
2022-08-05T20:17:48.934Z,30.74
2022-08-05T20:22:49.348Z,31.26
2022-08-05T20:27:49.642Z,31.23
2022-08-05T20:32:48.859Z,31.59
2022-08-05T20:38:06.291Z,31.28
2022-08-05T20:43:07.762Z,31.44
2022-08-05T20:48:07.314Z,30.92
2022-08-05T20:53:07.241Z,31.46
2022-08-05T20:58:16.547Z,31.31
2022-08-05T21:03:16.749Z,31.47
2022-08-05T21:08:19.482Z,31.58
2022-08-05T21:13:26.430Z,32.27
2022-08-05T21:18:38.596Z,32.54
2022-08-05T21:23:43.956Z,32.55
2022-08-05T21:28:50.885Z,32.65
2022-08-05T21:33:49.856Z,32.84
2022-08-05T21:38:48.678Z,33.13
2022-08-05T21:44:01.683Z,32.89
2022-08-05T21:49:07.115Z,33.24
2022-08-05T21:54:06.271Z,32.76
2022-08-05T21:59:22.494Z,32.62
2022-08-05T22:04:25.340Z,32.56
2022-08-05T22:09:24.441Z,34.41
2022-08-05T22:14:44.664Z,34.82
2022-08-05T22:20:00.104Z,35.73
2022-08-05T22:25:27.268Z,35.91
2022-08-05T22:30:35.144Z,36.17
2022-08-05T22:35:47.999Z,35.76
2022-08-05T22:40:49.336Z,35.54
2022-08-05T22:45:50.363Z,35.82
2022-08-05T22:50:56.251Z,35.96
2022-08-05T22:55:56.581Z,35.51
2022-08-05T23:00:57.683Z,35.18
2022-08-05T23:05:56.915Z,35.43
2022-08-05T23:10:57.106Z,34.98
2022-08-05T23:15:58.068Z,35.31
2022-08-05T23:20:57.177Z,35.17
2022-08-05T23:25:57.118Z,35.59
2022-08-05T23:30:57.155Z,35.83
2022-08-05T23:36:15.473Z,35.71
2022-08-05T23:41:14.335Z,36.81
2022-08-05T23:46:20.003Z,37.12
2022-08-05T23:51:20.696Z,37.67
2022-08-05T23:56:27.194Z,37.37
